sensor_id;sensor_type;location;lat;lon;timestamp;P1;durP1;ratioP1;P2;durP2;ratioP2
74245;SDS011;62601;51.044;13.788;2023-08-31T00:00:42;4.73;;;4.30;;
74245;SDS011;62601;51.044;13.788;2023-08-31T00:03:04;5.27;;;4.77;;
74245;SDS011;62601;51.044;13.788;2023-08-31T00:05:26;5.13;;;4.37;;
74245;SDS011;62601;51.044;13.788;2023-08-31T00:07:46;4.70;;;4.40;;
74245;SDS011;62601;51.044;13.788;2023-08-31T00:10:07;8.67;;;6.60;;
74245;SDS011;62601;51.044;13.788;2023-08-31T00:12:27;6.00;;;5.40;;
74245;SDS011;62601;51.044;13.788;2023-08-31T00:14:52;5.20;;;4.80;;
74245;SDS011;62601;51.044;13.788;2023-08-31T00:17:12;6.00;;;4.80;;
74245;SDS011;62601;51.044;13.788;2023-08-31T00:19:34;4.67;;;4.27;;
74245;SDS011;62601;51.044;13.788;2023-08-31T00:21:55;4.80;;;4.40;;
74245;SDS011;62601;51.044;13.788;2023-08-31T00:24:16;4.90;;;4.47;;
74245;SDS011;62601;51.044;13.788;2023-08-31T00:26:38;4.63;;;4.20;;
74245;SDS011;62601;51.044;13.788;2023-08-31T00:28:59;4.37;;;3.97;;
74245;SDS011;62601;51.044;13.788;2023-08-31T00:31:20;7.00;;;4.60;;
74245;SDS011;62601;51.044;13.788;2023-08-31T00:33:42;4.80;;;4.40;;
74245;SDS011;62601;51.044;13.788;2023-08-31T00:36:03;4.80;;;4.40;;
74245;SDS011;62601;51.044;13.788;2023-08-31T00:38:23;4.50;;;4.10;;
74245;SDS011;62601;51.044;13.788;2023-08-31T00:40:45;4.73;;;4.20;;
74245;SDS011;62601;51.044;13.788;2023-08-31T00:43:05;4.60;;;4.30;;
74245;SDS011;62601;51.044;13.788;2023-08-31T00:45:26;4.33;;;4.00;;
74245;SDS011;62601;51.044;13.788;2023-08-31T00:47:51;4.63;;;4.20;;
74245;SDS011;62601;51.044;13.788;2023-08-31T00:50:12;5.33;;;3.70;;
74245;SDS011;62601;51.044;13.788;2023-08-31T00:52:34;4.20;;;3.80;;
74245;SDS011;62601;51.044;13.788;2023-08-31T00:54:55;3.57;;;3.37;;
74245;SDS011;62601;51.044;13.788;2023-08-31T00:57:17;4.10;;;3.80;;
74245;SDS011;62601;51.044;13.788;2023-08-31T00:59:38;3.93;;;3.60;;
74245;SDS011;62601;51.044;13.788;2023-08-31T01:02:02;5.20;;;3.73;;
74245;SDS011;62601;51.044;13.788;2023-08-31T01:04:36;3.67;;;3.37;;
74245;SDS011;62601;51.044;13.788;2023-08-31T01:07:15;5.70;;;3.33;;
74245;SDS011;62601;51.044;13.788;2023-08-31T01:09:56;3.57;;;3.30;;
74245;SDS011;62601;51.044;13.788;2023-08-31T01:13:00;3.70;;;3.40;;
74245;SDS011;62601;51.044;13.788;2023-08-31T01:15:05;3.27;;;3.07;;
74245;SDS011;62601;51.044;13.788;2023-08-31T01:17:28;4.30;;;3.10;;
74245;SDS011;62601;51.044;13.788;2023-08-31T01:19:52;3.93;;;3.63;;
74245;SDS011;62601;51.044;13.788;2023-08-31T01:22:24;6.40;;;4.23;;
74245;SDS011;62601;51.044;13.788;2023-08-31T01:24:46;4.07;;;3.77;;
74245;SDS011;62601;51.044;13.788;2023-08-31T01:27:07;3.97;;;3.67;;
74245;SDS011;62601;51.044;13.788;2023-08-31T01:29:29;3.70;;;3.40;;
74245;SDS011;62601;51.044;13.788;2023-08-31T01:31:50;3.40;;;3.10;;
74245;SDS011;62601;51.044;13.788;2023-08-31T01:34:12;3.87;;;2.90;;
74245;SDS011;62601;51.044;13.788;2023-08-31T01:36:34;3.00;;;2.80;;
74245;SDS011;62601;51.044;13.788;2023-08-31T01:39:05;3.20;;;3.00;;
74245;SDS011;62601;51.044;13.788;2023-08-31T01:41:27;3.73;;;3.40;;
74245;SDS011;62601;51.044;13.788;2023-08-31T01:43:49;3.03;;;2.73;;
74245;SDS011;62601;51.044;13.788;2023-08-31T01:46:12;2.77;;;2.57;;
74245;SDS011;62601;51.044;13.788;2023-08-31T01:48:40;3.70;;;2.30;;
74245;SDS011;62601;51.044;13.788;2023-08-31T01:51:01;2.67;;;2.47;;
74245;SDS011;62601;51.044;13.788;2023-08-31T01:53:22;2.63;;;2.33;;
74245;SDS011;62601;51.044;13.788;2023-08-31T01:55:44;2.10;;;2.00;;
74245;SDS011;62601;51.044;13.788;2023-08-31T01:58:05;2.27;;;2.10;;
74245;SDS011;62601;51.044;13.788;2023-08-31T02:00:27;2.40;;;2.20;;
74245;SDS011;62601;51.044;13.788;2023-08-31T02:02:48;2.63;;;1.97;;
74245;SDS011;62601;51.044;13.788;2023-08-31T02:05:10;2.30;;;2.10;;
74245;SDS011;62601;51.044;13.788;2023-08-31T02:07:31;2.40;;;2.17;;
74245;SDS011;62601;51.044;13.788;2023-08-31T02:09:53;7.53;;;2.10;;
74245;SDS011;62601;51.044;13.788;2023-08-31T02:12:14;1.87;;;1.77;;
74245;SDS011;62601;51.044;13.788;2023-08-31T02:14:36;3.07;;;1.90;;
74245;SDS011;62601;51.044;13.788;2023-08-31T02:16:57;2.23;;;2.03;;
74245;SDS011;62601;51.044;13.788;2023-08-31T02:19:18;3.03;;;1.60;;
74245;SDS011;62601;51.044;13.788;2023-08-31T02:21:40;2.00;;;1.80;;
74245;SDS011;62601;51.044;13.788;2023-08-31T02:24:00;2.10;;;1.90;;
74245;SDS011;62601;51.044;13.788;2023-08-31T02:26:21;1.83;;;1.60;;
74245;SDS011;62601;51.044;13.788;2023-08-31T02:28:42;2.23;;;1.80;;
74245;SDS011;62601;51.044;13.788;2023-08-31T02:31:04;1.90;;;1.80;;
74245;SDS011;62601;51.044;13.788;2023-08-31T02:33:25;1.80;;;1.70;;
74245;SDS011;62601;51.044;13.788;2023-08-31T02:35:47;2.03;;;1.90;;
74245;SDS011;62601;51.044;13.788;2023-08-31T02:38:08;1.63;;;1.53;;
74245;SDS011;62601;51.044;13.788;2023-08-31T02:40:29;2.20;;;2.00;;
74245;SDS011;62601;51.044;13.788;2023-08-31T02:42:51;1.93;;;1.73;;
74245;SDS011;62601;51.044;13.788;2023-08-31T02:45:12;2.63;;;1.70;;
74245;SDS011;62601;51.044;13.788;2023-08-31T02:47:34;2.13;;;1.93;;
74245;SDS011;62601;51.044;13.788;2023-08-31T02:49:55;2.30;;;1.90;;
74245;SDS011;62601;51.044;13.788;2023-08-31T02:52:15;1.97;;;1.87;;
74245;SDS011;62601;51.044;13.788;2023-08-31T02:54:37;2.53;;;1.70;;
74245;SDS011;62601;51.044;13.788;2023-08-31T02:56:58;1.80;;;1.70;;
74245;SDS011;62601;51.044;13.788;2023-08-31T02:59:19;2.30;;;2.10;;
74245;SDS011;62601;51.044;13.788;2023-08-31T03:01:41;2.10;;;2.00;;
74245;SDS011;62601;51.044;13.788;2023-08-31T03:04:02;3.73;;;1.77;;
74245;SDS011;62601;51.044;13.788;2023-08-31T03:06:25;1.90;;;1.70;;
74245;SDS011;62601;51.044;13.788;2023-08-31T03:08:46;2.10;;;2.00;;
74245;SDS011;62601;51.044;13.788;2023-08-31T03:11:11;1.50;;;1.40;;
74245;SDS011;62601;51.044;13.788;2023-08-31T03:13:32;2.00;;;1.80;;
74245;SDS011;62601;51.044;13.788;2023-08-31T03:15:54;1.50;;;1.40;;
74245;SDS011;62601;51.044;13.788;2023-08-31T03:18:15;1.53;;;1.43;;
74245;SDS011;62601;51.044;13.788;2023-08-31T03:20:37;1.57;;;1.47;;
74245;SDS011;62601;51.044;13.788;2023-08-31T03:23:01;2.07;;;1.87;;
74245;SDS011;62601;51.044;13.788;2023-08-31T03:25:22;2.20;;;1.57;;
74245;SDS011;62601;51.044;13.788;2023-08-31T03:27:44;1.40;;;1.30;;
74245;SDS011;62601;51.044;13.788;2023-08-31T03:30:04;1.67;;;1.37;;
74245;SDS011;62601;51.044;13.788;2023-08-31T03:32:25;2.33;;;1.50;;
74245;SDS011;62601;51.044;13.788;2023-08-31T03:34:47;1.43;;;1.30;;
74245;SDS011;62601;51.044;13.788;2023-08-31T03:37:08;1.43;;;1.33;;
74245;SDS011;62601;51.044;13.788;2023-08-31T03:39:29;1.53;;;1.43;;
74245;SDS011;62601;51.044;13.788;2023-08-31T03:41:50;1.93;;;1.80;;
74245;SDS011;62601;51.044;13.788;2023-08-31T03:44:12;1.30;;;1.20;;
74245;SDS011;62601;51.044;13.788;2023-08-31T03:46:33;4.07;;;1.70;;
74245;SDS011;62601;51.044;13.788;2023-08-31T03:48:53;1.80;;;1.70;;
74245;SDS011;62601;51.044;13.788;2023-08-31T03:51:15;1.77;;;1.67;;
74245;SDS011;62601;51.044;13.788;2023-08-31T03:53:36;1.57;;;1.47;;
74245;SDS011;62601;51.044;13.788;2023-08-31T03:55:58;1.60;;;1.50;;
74245;SDS011;62601;51.044;13.788;2023-08-31T03:58:19;2.07;;;1.70;;
74245;SDS011;62601;51.044;13.788;2023-08-31T04:00:40;1.70;;;1.60;;
74245;SDS011;62601;51.044;13.788;2023-08-31T04:03:02;2.20;;;1.70;;
74245;SDS011;62601;51.044;13.788;2023-08-31T04:05:23;2.70;;;2.50;;
74245;SDS011;62601;51.044;13.788;2023-08-31T04:07:45;4.33;;;3.17;;
74245;SDS011;62601;51.044;13.788;2023-08-31T04:10:06;3.23;;;2.47;;
74245;SDS011;62601;51.044;13.788;2023-08-31T04:12:28;2.43;;;1.63;;
74245;SDS011;62601;51.044;13.788;2023-08-31T04:14:49;2.70;;;2.03;;
74245;SDS011;62601;51.044;13.788;2023-08-31T04:17:11;4.17;;;3.67;;
74245;SDS011;62601;51.044;13.788;2023-08-31T04:19:32;2.63;;;2.43;;
74245;SDS011;62601;51.044;13.788;2023-08-31T04:21:53;2.07;;;1.97;;
74245;SDS011;62601;51.044;13.788;2023-08-31T04:24:15;3.27;;;2.73;;
74245;SDS011;62601;51.044;13.788;2023-08-31T04:26:37;1.97;;;1.80;;
74245;SDS011;62601;51.044;13.788;2023-08-31T04:28:58;3.07;;;2.77;;
74245;SDS011;62601;51.044;13.788;2023-08-31T04:31:19;5.37;;;3.73;;
74245;SDS011;62601;51.044;13.788;2023-08-31T04:33:40;7.30;;;4.20;;
74245;SDS011;62601;51.044;13.788;2023-08-31T04:36:02;2.50;;;2.03;;
74245;SDS011;62601;51.044;13.788;2023-08-31T04:38:24;2.43;;;2.23;;
74245;SDS011;62601;51.044;13.788;2023-08-31T04:40:45;8.03;;;2.90;;
74245;SDS011;62601;51.044;13.788;2023-08-31T04:43:07;2.90;;;2.50;;
74245;SDS011;62601;51.044;13.788;2023-08-31T04:45:28;4.30;;;2.70;;
74245;SDS011;62601;51.044;13.788;2023-08-31T04:47:50;3.60;;;3.13;;
74245;SDS011;62601;51.044;13.788;2023-08-31T04:50:11;3.03;;;2.20;;
74245;SDS011;62601;51.044;13.788;2023-08-31T04:52:33;3.07;;;2.63;;
74245;SDS011;62601;51.044;13.788;2023-08-31T04:54:54;2.40;;;2.17;;
74245;SDS011;62601;51.044;13.788;2023-08-31T04:57:15;4.10;;;2.70;;
74245;SDS011;62601;51.044;13.788;2023-08-31T04:59:37;3.33;;;3.03;;
74245;SDS011;62601;51.044;13.788;2023-08-31T05:01:58;3.60;;;2.50;;
74245;SDS011;62601;51.044;13.788;2023-08-31T05:04:19;2.30;;;2.10;;
74245;SDS011;62601;51.044;13.788;2023-08-31T05:06:41;2.40;;;2.20;;
74245;SDS011;62601;51.044;13.788;2023-08-31T05:09:02;4.27;;;3.70;;
74245;SDS011;62601;51.044;13.788;2023-08-31T05:11:23;3.20;;;2.27;;
74245;SDS011;62601;51.044;13.788;2023-08-31T05:13:46;3.33;;;3.03;;
74245;SDS011;62601;51.044;13.788;2023-08-31T05:16:08;3.97;;;3.20;;
74245;SDS011;62601;51.044;13.788;2023-08-31T05:18:30;4.67;;;4.27;;
74245;SDS011;62601;51.044;13.788;2023-08-31T05:20:51;2.23;;;1.97;;
74245;SDS011;62601;51.044;13.788;2023-08-31T05:23:13;3.57;;;2.30;;
74245;SDS011;62601;51.044;13.788;2023-08-31T05:25:34;3.57;;;3.37;;
74245;SDS011;62601;51.044;13.788;2023-08-31T05:27:56;5.47;;;4.97;;
74245;SDS011;62601;51.044;13.788;2023-08-31T05:30:17;2.53;;;2.30;;
74245;SDS011;62601;51.044;13.788;2023-08-31T05:32:38;3.83;;;2.50;;
74245;SDS011;62601;51.044;13.788;2023-08-31T05:35:00;3.33;;;3.00;;
74245;SDS011;62601;51.044;13.788;2023-08-31T05:37:21;2.90;;;2.60;;
74245;SDS011;62601;51.044;13.788;2023-08-31T05:39:47;4.03;;;2.80;;
74245;SDS011;62601;51.044;13.788;2023-08-31T05:42:08;5.43;;;2.53;;
74245;SDS011;62601;51.044;13.788;2023-08-31T05:44:29;3.30;;;2.57;;
74245;SDS011;62601;51.044;13.788;2023-08-31T05:46:51;4.63;;;1.93;;
74245;SDS011;62601;51.044;13.788;2023-08-31T05:49:12;2.93;;;2.63;;
74245;SDS011;62601;51.044;13.788;2023-08-31T05:51:36;3.50;;;2.80;;
74245;SDS011;62601;51.044;13.788;2023-08-31T05:53:58;5.30;;;3.40;;
74245;SDS011;62601;51.044;13.788;2023-08-31T05:56:19;4.47;;;2.93;;
74245;SDS011;62601;51.044;13.788;2023-08-31T05:58:41;3.93;;;2.20;;
74245;SDS011;62601;51.044;13.788;2023-08-31T06:01:03;4.30;;;2.53;;
74245;SDS011;62601;51.044;13.788;2023-08-31T06:03:24;5.43;;;3.13;;
74245;SDS011;62601;51.044;13.788;2023-08-31T06:05:45;6.17;;;3.87;;
74245;SDS011;62601;51.044;13.788;2023-08-31T06:08:07;3.40;;;3.10;;
74245;SDS011;62601;51.044;13.788;2023-08-31T06:10:28;3.77;;;2.47;;
74245;SDS011;62601;51.044;13.788;2023-08-31T06:12:50;2.83;;;2.40;;
74245;SDS011;62601;51.044;13.788;2023-08-31T06:15:10;2.93;;;2.53;;
74245;SDS011;62601;51.044;13.788;2023-08-31T06:17:31;3.80;;;2.60;;
74245;SDS011;62601;51.044;13.788;2023-08-31T06:19:53;3.93;;;3.23;;
74245;SDS011;62601;51.044;13.788;2023-08-31T06:22:14;5.97;;;3.47;;
74245;SDS011;62601;51.044;13.788;2023-08-31T06:24:36;4.00;;;2.27;;
74245;SDS011;62601;51.044;13.788;2023-08-31T06:26:57;3.03;;;2.40;;
74245;SDS011;62601;51.044;13.788;2023-08-31T06:29:18;7.63;;;2.67;;
74245;SDS011;62601;51.044;13.788;2023-08-31T06:31:40;4.10;;;2.93;;
74245;SDS011;62601;51.044;13.788;2023-08-31T06:34:01;6.57;;;3.80;;
74245;SDS011;62601;51.044;13.788;2023-08-31T06:36:23;3.87;;;2.60;;
74245;SDS011;62601;51.044;13.788;2023-08-31T06:38:44;7.10;;;3.10;;
74245;SDS011;62601;51.044;13.788;2023-08-31T06:41:06;3.70;;;2.50;;
74245;SDS011;62601;51.044;13.788;2023-08-31T06:43:27;2.77;;;2.57;;
74245;SDS011;62601;51.044;13.788;2023-08-31T06:45:49;4.93;;;2.80;;
74245;SDS011;62601;51.044;13.788;2023-08-31T06:48:10;3.87;;;3.10;;
74245;SDS011;62601;51.044;13.788;2023-08-31T06:50:33;3.83;;;3.10;;
74245;SDS011;62601;51.044;13.788;2023-08-31T06:52:54;7.57;;;3.03;;
74245;SDS011;62601;51.044;13.788;2023-08-31T06:55:16;4.23;;;3.40;;
74245;SDS011;62601;51.044;13.788;2023-08-31T06:57:37;4.37;;;3.10;;
74245;SDS011;62601;51.044;13.788;2023-08-31T06:59:58;3.20;;;2.87;;
74245;SDS011;62601;51.044;13.788;2023-08-31T07:02:20;4.03;;;3.10;;
74245;SDS011;62601;51.044;13.788;2023-08-31T07:04:40;5.53;;;3.23;;
74245;SDS011;62601;51.044;13.788;2023-08-31T07:07:02;3.57;;;3.27;;
74245;SDS011;62601;51.044;13.788;2023-08-31T07:09:24;3.67;;;2.90;;
74245;SDS011;62601;51.044;13.788;2023-08-31T07:11:45;5.00;;;3.40;;
74245;SDS011;62601;51.044;13.788;2023-08-31T07:14:06;5.50;;;3.40;;
74245;SDS011;62601;51.044;13.788;2023-08-31T07:16:28;4.90;;;3.33;;
74245;SDS011;62601;51.044;13.788;2023-08-31T07:18:49;4.57;;;3.10;;
74245;SDS011;62601;51.044;13.788;2023-08-31T07:21:10;4.77;;;2.77;;
74245;SDS011;62601;51.044;13.788;2023-08-31T07:23:31;3.87;;;3.03;;
74245;SDS011;62601;51.044;13.788;2023-08-31T07:25:56;6.70;;;3.00;;
74245;SDS011;62601;51.044;13.788;2023-08-31T07:28:17;6.50;;;3.53;;
74245;SDS011;62601;51.044;13.788;2023-08-31T07:30:39;6.37;;;4.80;;
74245;SDS011;62601;51.044;13.788;2023-08-31T07:33:00;5.63;;;2.77;;
74245;SDS011;62601;51.044;13.788;2023-08-31T07:35:23;2.87;;;2.40;;
74245;SDS011;62601;51.044;13.788;2023-08-31T07:37:45;3.17;;;2.60;;
74245;SDS011;62601;51.044;13.788;2023-08-31T07:40:06;2.63;;;2.43;;
74245;SDS011;62601;51.044;13.788;2023-08-31T07:42:28;6.00;;;2.60;;
74245;SDS011;62601;51.044;13.788;2023-08-31T07:44:50;2.83;;;2.50;;
74245;SDS011;62601;51.044;13.788;2023-08-31T07:47:11;3.83;;;2.93;;
74245;SDS011;62601;51.044;13.788;2023-08-31T07:49:32;4.23;;;2.60;;
74245;SDS011;62601;51.044;13.788;2023-08-31T07:51:54;2.87;;;2.57;;
74245;SDS011;62601;51.044;13.788;2023-08-31T07:54:25;3.00;;;2.80;;
74245;SDS011;62601;51.044;13.788;2023-08-31T07:56:46;3.93;;;2.70;;
74245;SDS011;62601;51.044;13.788;2023-08-31T07:59:08;6.23;;;2.50;;
74245;SDS011;62601;51.044;13.788;2023-08-31T08:01:29;3.70;;;2.83;;
74245;SDS011;62601;51.044;13.788;2023-08-31T08:03:50;6.63;;;2.87;;
74245;SDS011;62601;51.044;13.788;2023-08-31T08:06:12;3.80;;;3.00;;
74245;SDS011;62601;51.044;13.788;2023-08-31T08:08:34;5.17;;;3.97;;
74245;SDS011;62601;51.044;13.788;2023-08-31T08:10:55;5.00;;;3.90;;
74245;SDS011;62601;51.044;13.788;2023-08-31T08:13:16;4.60;;;2.47;;
74245;SDS011;62601;51.044;13.788;2023-08-31T08:15:38;4.70;;;3.03;;
74245;SDS011;62601;51.044;13.788;2023-08-31T08:18:00;3.17;;;2.60;;
74245;SDS011;62601;51.044;13.788;2023-08-31T08:20:21;3.67;;;2.70;;
74245;SDS011;62601;51.044;13.788;2023-08-31T08:22:42;3.70;;;2.30;;
74245;SDS011;62601;51.044;13.788;2023-08-31T08:25:04;3.80;;;2.60;;
74245;SDS011;62601;51.044;13.788;2023-08-31T08:27:25;2.80;;;2.60;;
74245;SDS011;62601;51.044;13.788;2023-08-31T08:29:47;2.47;;;2.27;;
74245;SDS011;62601;51.044;13.788;2023-08-31T08:32:08;3.37;;;2.50;;
74245;SDS011;62601;51.044;13.788;2023-08-31T08:34:29;3.70;;;2.50;;
74245;SDS011;62601;51.044;13.788;2023-08-31T08:36:51;4.07;;;2.70;;
74245;SDS011;62601;51.044;13.788;2023-08-31T08:39:12;4.70;;;2.20;;
74245;SDS011;62601;51.044;13.788;2023-08-31T08:41:34;4.83;;;2.23;;
74245;SDS011;62601;51.044;13.788;2023-08-31T08:43:56;4.90;;;4.10;;
74245;SDS011;62601;51.044;13.788;2023-08-31T08:46:22;3.30;;;2.90;;
74245;SDS011;62601;51.044;13.788;2023-08-31T08:48:44;3.00;;;2.47;;
74245;SDS011;62601;51.044;13.788;2023-08-31T08:51:07;2.43;;;2.17;;
74245;SDS011;62601;51.044;13.788;2023-08-31T08:53:32;4.60;;;1.93;;
74245;SDS011;62601;51.044;13.788;2023-08-31T08:55:53;4.00;;;2.70;;
74245;SDS011;62601;51.044;13.788;2023-08-31T08:58:16;6.43;;;2.30;;
74245;SDS011;62601;51.044;13.788;2023-08-31T09:00:36;3.40;;;2.43;;
74245;SDS011;62601;51.044;13.788;2023-08-31T09:02:59;2.60;;;2.10;;
74245;SDS011;62601;51.044;13.788;2023-08-31T09:05:21;4.83;;;1.93;;
74245;SDS011;62601;51.044;13.788;2023-08-31T09:10:21;2.50;;;2.30;;
74245;SDS011;62601;51.044;13.788;2023-08-31T09:12:42;3.53;;;1.70;;
74245;SDS011;62601;51.044;13.788;2023-08-31T09:15:04;2.60;;;2.00;;
74245;SDS011;62601;51.044;13.788;2023-08-31T09:17:57;3.80;;;1.87;;
74245;SDS011;62601;51.044;13.788;2023-08-31T09:20:11;2.30;;;1.80;;
74245;SDS011;62601;51.044;13.788;2023-08-31T09:22:33;3.73;;;1.70;;
74245;SDS011;62601;51.044;13.788;2023-08-31T09:24:54;2.83;;;2.20;;
74245;SDS011;62601;51.044;13.788;2023-08-31T09:27:14;2.97;;;2.30;;
74245;SDS011;62601;51.044;13.788;2023-08-31T09:29:37;4.77;;;2.20;;
74245;SDS011;62601;51.044;13.788;2023-08-31T09:31:59;2.40;;;2.20;;
74245;SDS011;62601;51.044;13.788;2023-08-31T09:34:20;3.27;;;2.20;;
74245;SDS011;62601;51.044;13.788;2023-08-31T09:36:42;3.47;;;1.80;;
74245;SDS011;62601;51.044;13.788;2023-08-31T09:39:05;2.27;;;2.00;;
74245;SDS011;62601;51.044;13.788;2023-08-31T09:41:26;1.87;;;1.60;;
74245;SDS011;62601;51.044;13.788;2023-08-31T09:43:48;2.77;;;2.37;;
74245;SDS011;62601;51.044;13.788;2023-08-31T09:46:09;4.13;;;1.80;;
74245;SDS011;62601;51.044;13.788;2023-08-31T09:48:31;4.37;;;2.00;;
74245;SDS011;62601;51.044;13.788;2023-08-31T09:50:53;3.00;;;2.10;;
74245;SDS011;62601;51.044;13.788;2023-08-31T09:53:16;2.37;;;2.10;;
74245;SDS011;62601;51.044;13.788;2023-08-31T09:55:38;2.83;;;2.10;;
74245;SDS011;62601;51.044;13.788;2023-08-31T09:57:59;2.63;;;2.40;;
74245;SDS011;62601;51.044;13.788;2023-08-31T10:00:21;3.60;;;1.90;;
74245;SDS011;62601;51.044;13.788;2023-08-31T10:02:43;6.23;;;5.63;;
74245;SDS011;62601;51.044;13.788;2023-08-31T10:05:05;8.40;;;6.37;;
74245;SDS011;62601;51.044;13.788;2023-08-31T10:07:26;2.80;;;2.57;;
74245;SDS011;62601;51.044;13.788;2023-08-31T10:09:47;3.37;;;1.93;;
74245;SDS011;62601;51.044;13.788;2023-08-31T10:12:09;2.40;;;2.20;;
74245;SDS011;62601;51.044;13.788;2023-08-31T10:14:31;2.87;;;2.50;;
74245;SDS011;62601;51.044;13.788;2023-08-31T10:16:52;2.90;;;2.70;;
74245;SDS011;62601;51.044;13.788;2023-08-31T10:19:14;1.90;;;1.80;;
74245;SDS011;62601;51.044;13.788;2023-08-31T10:21:34;3.00;;;2.63;;
74245;SDS011;62601;51.044;13.788;2023-08-31T10:23:56;2.47;;;1.90;;
74245;SDS011;62601;51.044;13.788;2023-08-31T10:26:27;2.47;;;2.23;;
74245;SDS011;62601;51.044;13.788;2023-08-31T10:28:49;3.10;;;2.10;;
74245;SDS011;62601;51.044;13.788;2023-08-31T10:31:16;2.50;;;2.17;;
74245;SDS011;62601;51.044;13.788;2023-08-31T10:33:45;2.30;;;2.10;;
74245;SDS011;62601;51.044;13.788;2023-08-31T10:36:16;2.27;;;2.13;;
74245;SDS011;62601;51.044;13.788;2023-08-31T10:38:38;2.27;;;1.90;;
74245;SDS011;62601;51.044;13.788;2023-08-31T10:43:27;2.93;;;2.00;;
74245;SDS011;62601;51.044;13.788;2023-08-31T10:45:48;3.07;;;2.33;;
74245;SDS011;62601;51.044;13.788;2023-08-31T10:48:11;3.30;;;3.00;;
74245;SDS011;62601;51.044;13.788;2023-08-31T10:50:33;2.00;;;1.40;;
74245;SDS011;62601;51.044;13.788;2023-08-31T10:53:13;2.50;;;1.20;;
74245;SDS011;62601;51.044;13.788;2023-08-31T10:55:34;4.13;;;1.60;;
74245;SDS011;62601;51.044;13.788;2023-08-31T10:57:56;3.03;;;1.50;;
74245;SDS011;62601;51.044;13.788;2023-08-31T11:00:45;1.60;;;1.40;;
74245;SDS011;62601;51.044;13.788;2023-08-31T11:03:01;1.57;;;1.40;;
74245;SDS011;62601;51.044;13.788;2023-08-31T11:05:23;3.93;;;1.53;;
74245;SDS011;62601;51.044;13.788;2023-08-31T11:07:47;2.13;;;1.50;;
74245;SDS011;62601;51.044;13.788;2023-08-31T11:10:15;2.50;;;1.50;;
74245;SDS011;62601;51.044;13.788;2023-08-31T11:12:37;2.20;;;1.63;;
74245;SDS011;62601;51.044;13.788;2023-08-31T11:14:58;1.57;;;1.43;;
74245;SDS011;62601;51.044;13.788;2023-08-31T11:17:18;2.00;;;1.40;;
74245;SDS011;62601;51.044;13.788;2023-08-31T11:19:39;2.63;;;1.63;;
74245;SDS011;62601;51.044;13.788;2023-08-31T11:22:05;3.27;;;1.67;;
74245;SDS011;62601;51.044;13.788;2023-08-31T11:24:27;1.67;;;1.10;;
74245;SDS011;62601;51.044;13.788;2023-08-31T11:26:51;5.57;;;1.40;;
74245;SDS011;62601;51.044;13.788;2023-08-31T11:29:13;2.70;;;1.40;;
74245;SDS011;62601;51.044;13.788;2023-08-31T11:31:43;3.60;;;1.30;;
74245;SDS011;62601;51.044;13.788;2023-08-31T11:34:04;3.77;;;3.43;;
74245;SDS011;62601;51.044;13.788;2023-08-31T11:36:26;1.90;;;1.80;;
74245;SDS011;62601;51.044;13.788;2023-08-31T11:38:50;1.20;;;1.10;;
74245;SDS011;62601;51.044;13.788;2023-08-31T11:41:11;0.90;;;0.90;;
74245;SDS011;62601;51.044;13.788;2023-08-31T11:43:31;1.80;;;1.10;;
74245;SDS011;62601;51.044;13.788;2023-08-31T11:45:52;1.63;;;1.17;;
74245;SDS011;62601;51.044;13.788;2023-08-31T11:48:13;4.90;;;1.70;;
74245;SDS011;62601;51.044;13.788;2023-08-31T11:50:35;1.53;;;1.43;;
74245;SDS011;62601;51.044;13.788;2023-08-31T11:52:56;1.70;;;1.10;;
74245;SDS011;62601;51.044;13.788;2023-08-31T11:55:17;1.87;;;1.17;;
74245;SDS011;62601;51.044;13.788;2023-08-31T11:57:39;3.23;;;0.90;;
74245;SDS011;62601;51.044;13.788;2023-08-31T11:59:59;2.20;;;1.10;;
74245;SDS011;62601;51.044;13.788;2023-08-31T12:02:24;3.57;;;1.97;;
74245;SDS011;62601;51.044;13.788;2023-08-31T12:04:46;2.53;;;1.30;;
74245;SDS011;62601;51.044;13.788;2023-08-31T12:07:08;2.30;;;1.40;;
74245;SDS011;62601;51.044;13.788;2023-08-31T12:09:29;1.53;;;1.30;;
74245;SDS011;62601;51.044;13.788;2023-08-31T12:11:51;1.20;;;1.10;;
74245;SDS011;62601;51.044;13.788;2023-08-31T12:14:19;0.90;;;0.90;;
74245;SDS011;62601;51.044;13.788;2023-08-31T12:16:39;3.07;;;1.10;;
74245;SDS011;62601;51.044;13.788;2023-08-31T12:19:03;4.13;;;1.07;;
74245;SDS011;62601;51.044;13.788;2023-08-31T12:21:23;1.23;;;1.13;;
74245;SDS011;62601;51.044;13.788;2023-08-31T12:23:43;1.40;;;1.30;;
74245;SDS011;62601;51.044;13.788;2023-08-31T12:26:05;1.20;;;1.00;;
74245;SDS011;62601;51.044;13.788;2023-08-31T12:28:26;1.10;;;0.90;;
74245;SDS011;62601;51.044;13.788;2023-08-31T12:30:52;1.27;;;1.10;;
74245;SDS011;62601;51.044;13.788;2023-08-31T12:33:13;2.83;;;1.10;;
74245;SDS011;62601;51.044;13.788;2023-08-31T12:35:34;1.80;;;1.10;;
74245;SDS011;62601;51.044;13.788;2023-08-31T12:37:56;1.50;;;1.30;;
74245;SDS011;62601;51.044;13.788;2023-08-31T12:40:16;1.30;;;1.20;;
74245;SDS011;62601;51.044;13.788;2023-08-31T12:42:37;1.00;;;1.00;;
74245;SDS011;62601;51.044;13.788;2023-08-31T12:44:59;2.60;;;1.20;;
74245;SDS011;62601;51.044;13.788;2023-08-31T12:47:20;1.30;;;1.20;;
74245;SDS011;62601;51.044;13.788;2023-08-31T12:49:40;1.57;;;1.47;;
74245;SDS011;62601;51.044;13.788;2023-08-31T12:52:00;1.30;;;1.03;;
74245;SDS011;62601;51.044;13.788;2023-08-31T12:54:20;1.33;;;1.10;;
74245;SDS011;62601;51.044;13.788;2023-08-31T12:56:40;2.70;;;2.50;;
74245;SDS011;62601;51.044;13.788;2023-08-31T12:59:05;2.37;;;2.27;;
74245;SDS011;62601;51.044;13.788;2023-08-31T13:01:25;2.10;;;1.70;;
74245;SDS011;62601;51.044;13.788;2023-08-31T13:03:46;2.20;;;1.60;;
74245;SDS011;62601;51.044;13.788;2023-08-31T13:06:06;1.67;;;1.40;;
74245;SDS011;62601;51.044;13.788;2023-08-31T13:08:27;1.73;;;1.60;;
74245;SDS011;62601;51.044;13.788;2023-08-31T13:10:52;1.90;;;1.80;;
74245;SDS011;62601;51.044;13.788;2023-08-31T13:13:13;1.50;;;1.40;;
74245;SDS011;62601;51.044;13.788;2023-08-31T13:15:35;1.17;;;1.10;;
74245;SDS011;62601;51.044;13.788;2023-08-31T13:17:56;3.90;;;2.77;;
74245;SDS011;62601;51.044;13.788;2023-08-31T13:20:16;2.67;;;1.50;;
74245;SDS011;62601;51.044;13.788;2023-08-31T13:22:38;1.50;;;1.40;;
74245;SDS011;62601;51.044;13.788;2023-08-31T13:24:59;2.10;;;1.40;;
74245;SDS011;62601;51.044;13.788;2023-08-31T13:27:20;2.37;;;1.77;;
74245;SDS011;62601;51.044;13.788;2023-08-31T13:29:42;1.47;;;1.37;;
74245;SDS011;62601;51.044;13.788;2023-08-31T13:32:04;1.83;;;1.70;;
74245;SDS011;62601;51.044;13.788;2023-08-31T13:34:24;1.90;;;1.30;;
74245;SDS011;62601;51.044;13.788;2023-08-31T13:36:44;2.30;;;1.50;;
74245;SDS011;62601;51.044;13.788;2023-08-31T13:39:04;5.07;;;1.70;;
74245;SDS011;62601;51.044;13.788;2023-08-31T13:41:24;3.17;;;1.53;;
74245;SDS011;62601;51.044;13.788;2023-08-31T13:43:46;3.70;;;2.10;;
74245;SDS011;62601;51.044;13.788;2023-08-31T13:46:06;3.10;;;1.57;;
74245;SDS011;62601;51.044;13.788;2023-08-31T13:48:26;2.00;;;1.90;;
74245;SDS011;62601;51.044;13.788;2023-08-31T13:50:47;1.80;;;1.70;;
74245;SDS011;62601;51.044;13.788;2023-08-31T13:53:08;2.80;;;1.93;;
74245;SDS011;62601;51.044;13.788;2023-08-31T13:55:29;1.53;;;1.43;;
74245;SDS011;62601;51.044;13.788;2023-08-31T13:57:50;2.57;;;1.60;;
74245;SDS011;62601;51.044;13.788;2023-08-31T14:00:12;1.83;;;1.73;;
74245;SDS011;62601;51.044;13.788;2023-08-31T14:02:34;1.87;;;1.70;;
74245;SDS011;62601;51.044;13.788;2023-08-31T14:04:56;3.57;;;2.47;;
74245;SDS011;62601;51.044;13.788;2023-08-31T14:07:16;3.57;;;3.37;;